Pagrindinis puslapis
METAR-TAF:

METAR-TAF

Oro uostai :

Kuusamo, Suomija

platuma: 65-58N, ilguma: 029-11E, Aukštis: 262 m

Dabartinis oras

Ataskaita buvo paskelbta 34 minutes, ne 07:50 UTC
Vėjas 15 kt iš Vakarų/Pietvakarių
Temperatūra 21°C
Drėgmė 38%
Slėgis 1018 hPa
Matomumas 10 km arba daugiau
nėra debesų žemiau 1500 m ir nėra kamuolinių lietaus debesų

METAR: EFKS 240750Z AUTO 24015KT CAVOK 21/06 Q1018

Laikas: 11:24 (08:24 UTC)

Prognozė

Ataskaita buvo paskelbta 23 valandos ir 57 minutes, ne 08:27 UTC
Prognozė galioja nuo 23 metu 09 UTC su 23 metu 12 UTC
Vėjas 6 kt iš Pietų/Pietryčių
Matomumas 10 km arba daugiau
nėra debesų žemiau 1500 m ir nėra kamuolinių lietaus debesų
Tapsmas
nuo 23 metu 10 UTC su 23 metu 12 UTC
Vėjas 11 kt iš Pietų/Pietvakarių

TAF: EFKS 230827Z 2309/2312 15006KT CAVOK BECMG 2310/2312 21011KT

Orai ataskaitas ir orų prognozės (METAR, TAF).

turimą stotys yra geltonos ir raudonos taškus žemėlapyje.

Perkelti pele per norėdami pamatyti stoties vardą.

Tada spustelėkite, norėdami matyti oro stebėjimo ir prognozės.

Norėdami pakeisti žemėlapį: spustelėkite ant žalios mygtukų su juodo kryžiaus žemyn,; žalią mygtuką su brūkšneliu, jei norite nutolinti; arba žalių rodyklių gretimoms žemėlapius.


METAR-TAF: